createdAt,value
2019-02-08T00:02:57.026Z,97810.78
2019-02-08T00:08:00.420Z,97818.09
2019-02-08T00:13:04.078Z,97825.36
2019-02-08T00:18:07.467Z,97826.55
2019-02-08T00:23:10.871Z,97833.36
2019-02-08T00:28:14.403Z,97840.67
2019-02-08T00:33:17.803Z,97840.63
2019-02-08T00:38:21.318Z,97842.81
2019-02-08T00:43:24.720Z,97845.78
2019-02-08T00:48:28.108Z,97855.22
2019-02-08T00:53:33.487Z,97853.08
2019-02-08T00:58:34.927Z,97863.38
2019-02-08T01:03:38.513Z,97865.91
2019-02-08T01:08:41.955Z,97871.05
2019-02-08T01:13:45.450Z,97875.30
2019-02-08T01:18:48.889Z,97884.69
2019-02-08T01:23:52.282Z,97876.97
2019-02-08T01:28:55.720Z,97872.70
2019-02-08T01:33:59.337Z,97881.22
2019-02-08T01:39:03.065Z,97880.37
2019-02-08T01:44:06.549Z,97878.20
2019-02-08T01:49:10.064Z,97892.33
2019-02-08T01:54:13.463Z,97895.31
2019-02-08T01:59:16.895Z,97894.86
2019-02-08T02:04:20.291Z,97894.45
2019-02-08T02:09:23.823Z,97891.88
2019-02-08T02:14:27.296Z,97892.78
2019-02-08T02:19:30.877Z,97910.75
2019-02-08T02:24:34.391Z,97899.12
2019-02-08T02:29:37.808Z,97905.59
2019-02-08T02:34:41.237Z,97900.05
2019-02-08T02:39:44.677Z,97900.90
2019-02-08T02:44:48.072Z,97915.04
2019-02-08T02:49:51.681Z,97921.88
2019-02-08T02:54:55.081Z,97919.74
2019-02-08T02:59:58.649Z,97918.41
2019-02-08T03:05:02.163Z,97910.30
2019-02-08T03:10:06.345Z,97915.04
2019-02-08T03:15:10.819Z,97924.39
2019-02-08T03:20:15.619Z,97926.51
2019-02-08T03:25:20.749Z,97923.95
2019-02-08T03:30:35.892Z,97919.25
2019-02-08T03:35:39.407Z,97928.20
2019-02-08T03:40:42.828Z,97933.34
2019-02-08T03:45:47.132Z,97937.19
2019-02-08T03:50:50.529Z,97939.77
2019-02-08T03:55:58.270Z,97944.48
2019-02-08T04:01:01.081Z,97937.20
2019-02-08T04:06:04.637Z,97933.33
2019-02-08T04:11:08.115Z,97940.12
2019-02-08T04:16:11.510Z,97941.84
2019-02-08T04:21:14.983Z,97943.13
2019-02-08T04:26:18.386Z,97941.40
2019-02-08T04:31:22.080Z,97950.89
2019-02-08T04:36:26.598Z,97956.49
2019-02-08T04:41:30.090Z,97957.73
2019-02-08T04:46:33.584Z,97956.00
2019-02-08T04:51:36.977Z,97958.52
2019-02-08T04:56:40.440Z,97967.53
2019-02-08T05:01:43.935Z,97977.81
2019-02-08T05:06:47.335Z,97975.64
2019-02-08T05:11:50.747Z,97965.39
2019-02-08T05:16:54.168Z,97963.27
2019-02-08T05:21:57.633Z,97965.34
2019-02-08T05:27:01.038Z,97965.33
2019-02-08T05:32:04.494Z,97958.86
2019-02-08T05:37:07.926Z,97960.18
2019-02-08T05:42:11.428Z,97949.50
2019-02-08T05:47:14.864Z,97955.03
2019-02-08T05:52:18.264Z,97958.91
2019-02-08T05:57:21.692Z,97962.30
2019-02-08T06:02:25.127Z,97961.88
2019-02-08T06:07:32.684Z,97958.89
2019-02-08T06:12:36.084Z,97971.33
2019-02-08T06:17:40.502Z,97972.23
2019-02-08T06:22:43.921Z,97981.67
2019-02-08T06:27:47.389Z,97982.08
2019-02-08T06:32:50.878Z,97977.77
2019-02-08T06:37:54.353Z,97985.92
2019-02-08T06:42:57.925Z,97983.64
2019-02-08T06:48:01.532Z,97989.61
2019-02-08T06:53:05.023Z,97995.56
2019-02-08T06:58:19.074Z,97984.46
2019-02-08T07:03:29.542Z,97988.72
2019-02-08T07:08:40.045Z,97996.39
2019-02-08T07:13:50.574Z,97992.14
2019-02-08T07:19:00.254Z,98005.02
2019-02-08T07:24:24.808Z,98008.42
2019-02-08T07:29:41.453Z,98006.64
2019-02-08T07:35:05.972Z,98009.65
2019-02-08T07:40:20.403Z,98004.16
2019-02-08T07:45:30.807Z,98004.13
2019-02-08T07:56:08.230Z,98015.65
2019-02-08T08:01:22.589Z,98014.23
2019-02-08T08:06:33.779Z,98011.70
2019-02-08T08:11:42.228Z,98013.83
2019-02-08T08:16:50.406Z,98014.74
2019-02-08T08:24:02.997Z,98008.76
2019-02-08T08:29:11.940Z,98007.20
2019-02-08T08:34:24.296Z,98009.70
2019-02-08T08:39:42.424Z,98013.70
2019-02-08T08:46:01.213Z,98024.28
2019-02-08T08:51:18.030Z,98024.45
2019-02-08T08:58:46.216Z,98021.95
2019-02-08T09:04:06.035Z,98026.33
2019-02-08T09:09:25.674Z,98017.72
2019-02-08T09:14:40.819Z,98015.81
2019-02-08T09:19:58.758Z,98013.72
2019-02-08T09:27:13.288Z,98010.00
2019-02-08T09:32:55.155Z,97999.01
2019-02-08T09:38:07.398Z,97993.24
2019-02-08T09:43:21.729Z,97999.22
2019-02-08T09:48:37.904Z,97991.97
2019-02-08T09:54:00.850Z,97991.25
2019-02-08T09:59:16.060Z,97992.79
2019-02-08T10:04:30.024Z,97996.27
2019-02-08T10:09:50.199Z,97994.53
2019-02-08T10:15:06.385Z,97991.34
2019-02-08T10:20:24.771Z,97986.44
2019-02-08T10:27:44.968Z,97979.16
2019-02-08T10:32:59.183Z,97974.50
2019-02-08T10:38:13.190Z,97964.23
2019-02-08T10:43:27.692Z,97961.95
2019-02-08T10:48:41.831Z,97964.93
2019-02-08T10:54:29.752Z,97963.78
2019-02-08T11:00:48.699Z,97955.53
2019-02-08T11:10:11.207Z,97954.06
2019-02-08T11:15:26.059Z,97943.61
2019-02-08T11:20:29.290Z,97941.20
2019-02-08T11:25:32.482Z,97943.23
2019-02-08T11:30:35.695Z,97932.73
2019-02-08T11:35:38.862Z,97936.14
2019-02-08T11:40:42.106Z,97922.45
2019-02-08T11:45:45.307Z,97928.89
2019-02-08T11:50:48.531Z,97924.14
2019-02-08T11:55:51.813Z,97920.56
2019-02-08T12:00:56.762Z,97918.20
2019-02-08T12:05:59.996Z,97912.14
2019-02-08T12:11:03.193Z,97895.98
2019-02-08T12:16:06.393Z,97887.24
2019-02-08T12:21:09.596Z,97892.65
2019-02-08T12:26:12.769Z,97878.05
2019-02-08T12:31:15.994Z,97866.44
2019-02-08T12:36:19.194Z,97855.62
2019-02-08T12:41:22.478Z,97856.28
2019-02-08T12:46:25.799Z,97849.25
2019-02-08T12:51:29.083Z,97843.87
2019-02-08T12:56:32.351Z,97836.64
2019-02-08T13:01:37.766Z,97828.25
2019-02-08T13:06:38.878Z,97817.23
2019-02-08T13:11:42.246Z,97801.61
2019-02-08T13:16:45.466Z,97799.89
2019-02-08T13:21:48.852Z,97799.17
2019-02-08T13:26:53.063Z,97794.56
2019-02-08T13:31:55.338Z,97776.35
2019-02-08T13:36:58.622Z,97775.65
2019-02-08T13:42:01.881Z,97767.47
2019-02-08T13:47:05.144Z,97773.00
2019-02-08T13:52:08.491Z,97761.56
2019-02-08T13:57:11.819Z,97762.77
2019-02-08T14:02:15.203Z,97753.12
2019-02-08T14:07:18.518Z,97745.08
2019-02-08T14:12:21.822Z,97748.37
2019-02-08T14:17:25.118Z,97742.79
2019-02-08T14:22:28.399Z,97736.61
2019-02-08T14:27:31.682Z,97728.41
2019-02-08T14:32:35.049Z,97719.45
2019-02-08T14:37:39.069Z,97717.16
2019-02-08T14:42:42.436Z,97717.47
2019-02-08T14:47:45.770Z,97715.84
2019-02-08T14:52:49.168Z,97704.02
2019-02-08T14:57:52.803Z,97696.23
2019-02-08T15:02:56.134Z,97698.92
2019-02-08T15:07:59.461Z,97691.20
2019-02-08T15:13:02.727Z,97690.92
2019-02-08T15:18:06.139Z,97697.06
2019-02-08T15:23:09.462Z,97694.41
2019-02-08T15:28:12.746Z,97683.89
2019-02-08T15:33:16.118Z,97675.70
2019-02-08T15:38:19.486Z,97671.16
2019-02-08T15:43:23.619Z,97669.06
2019-02-08T15:48:27.055Z,97660.94
2019-02-08T15:53:30.371Z,97660.00
2019-02-08T15:58:33.852Z,97647.38
2019-02-08T16:03:37.549Z,97647.15
2019-02-08T16:08:40.963Z,97642.34
2019-02-08T16:13:44.267Z,97636.53
2019-02-08T16:18:47.637Z,97625.20
2019-02-08T16:23:50.922Z,97615.54
2019-02-08T16:28:54.251Z,97607.04
2019-02-08T16:33:57.672Z,97613.70
2019-02-08T16:39:01.037Z,97610.44
2019-02-08T16:44:04.621Z,97600.37
2019-02-08T16:49:07.944Z,97612.36
2019-02-08T16:54:11.265Z,97612.66
2019-02-08T16:59:14.552Z,97612.84
2019-02-08T17:04:17.824Z,97614.34
2019-02-08T17:09:21.179Z,97603.44
2019-02-08T17:14:24.482Z,97611.55
2019-02-08T17:19:27.795Z,97615.69
2019-02-08T17:24:31.103Z,97607.13
2019-02-08T17:29:34.419Z,97618.27
2019-02-08T17:34:37.707Z,97606.24
2019-02-08T17:39:41.053Z,97609.61
2019-02-08T17:44:44.428Z,97609.60
2019-02-08T17:49:47.915Z,97610.91
2019-02-08T17:54:51.269Z,97612.20
2019-02-08T17:59:54.689Z,97602.89
2019-02-08T18:04:58.263Z,97594.45
2019-02-08T18:10:01.591Z,97591.12
2019-02-08T18:15:05.900Z,97583.58
2019-02-08T18:20:14.861Z,97574.69
2019-02-08T18:25:18.199Z,97570.83
2019-02-08T18:30:21.861Z,97565.75
2019-02-08T18:35:26.026Z,97561.16
2019-02-08T18:40:29.482Z,97556.55
2019-02-08T18:45:33.945Z,97554.23
2019-02-08T18:50:40.729Z,97547.13
2019-02-08T18:55:44.129Z,97538.98
2019-02-08T19:00:49.518Z,97538.60
2019-02-08T19:05:52.955Z,97526.71
2019-02-08T19:10:56.485Z,97528.28
2019-02-08T19:15:59.816Z,97517.20
2019-02-08T19:21:03.181Z,97508.76
2019-02-08T19:26:06.586Z,97503.23
2019-02-08T19:31:09.991Z,97511.31
2019-02-08T19:36:13.450Z,97507.02
2019-02-08T19:41:16.883Z,97503.83
2019-02-08T19:46:20.495Z,97491.42
2019-02-08T19:51:23.965Z,97481.05
2019-02-08T19:56:27.353Z,97475.22
2019-02-08T20:01:31.781Z,97478.24
2019-02-08T20:06:35.320Z,97477.40
2019-02-08T20:11:38.717Z,97476.63
2019-02-08T20:16:42.049Z,97469.45
2019-02-08T20:21:46.045Z,97462.64
2019-02-08T20:26:49.461Z,97471.92
2019-02-08T20:31:53.030Z,97481.35
2019-02-08T20:36:56.558Z,97476.33
2019-02-08T20:42:00.915Z,97470.97
2019-02-08T20:47:04.421Z,97466.66
2019-02-08T20:52:08.047Z,97449.50
2019-02-08T20:57:11.437Z,97446.50
2019-02-08T21:02:14.839Z,97448.76
2019-02-08T21:07:18.143Z,97450.20
2019-02-08T21:12:21.470Z,97448.17
2019-02-08T21:17:24.805Z,97439.45
2019-02-08T21:22:28.098Z,97430.48
2019-02-08T21:27:31.394Z,97425.81
2019-02-08T21:32:34.795Z,97421.14
2019-02-08T21:37:38.328Z,97409.66
2019-02-08T21:42:41.659Z,97409.86
2019-02-08T21:47:45.065Z,97397.48
2019-02-08T21:52:48.467Z,97390.18
2019-02-08T21:57:51.778Z,97383.81
2019-02-08T22:02:55.342Z,97379.14
2019-02-08T22:07:58.712Z,97368.93
2019-02-08T22:13:02.410Z,97349.64
2019-02-08T22:18:06.542Z,97344.50
2019-02-08T22:23:10.163Z,97342.02
2019-02-08T22:28:13.415Z,97342.08
2019-02-08T22:33:16.670Z,97321.86
2019-02-08T22:38:20.082Z,97319.66
2019-02-08T22:43:23.324Z,97309.44
2019-02-08T22:48:26.595Z,97309.01
2019-02-08T22:53:29.779Z,97310.73
2019-02-08T22:58:32.975Z,97295.42
2019-02-08T23:03:37.240Z,97295.52
2019-02-08T23:08:40.449Z,97279.29
2019-02-08T23:13:43.730Z,97266.55
2019-02-08T23:18:46.907Z,97264.35
2019-02-08T23:23:50.130Z,97269.10
2019-02-08T23:28:53.341Z,97264.81
2019-02-08T23:33:56.499Z,97255.41
2019-02-08T23:38:59.683Z,97241.77
2019-02-08T23:44:02.850Z,97235.47
2019-02-08T23:49:06.041Z,97226.55
2019-02-08T23:54:09.219Z,97217.17
2019-02-08T23:59:12.480Z,97220.27
